Terminal Aerodrome Forecast
Issued by NWS

Home | Current Version | Previous Version | Text Only | Print | Product List | Glossary On
Versions: 1 2 3 4 5 6 7 8 9 10 11 12 13 14 15
000
FTAK31 PAFA 270533
TAFASC
TAF
PASC 270533Z 2706/2806 06021G25KT P6SM SKC
     FM270800 08014KT 1SM BR BKN003
     FM280000 07020KT P6SM VCFG FEW250=

USA.gov is the U.S. government's official web portal to all federal, state and local government web resources and services.